Time;durP1;ratioP1;P1;durP2;ratioP2;P2;SDS_P1;SDS_P2;PMS_P1;PMS_P2;Temp;Humidity;BMP_temperature;BMP_pressure;BME280_temperature;BME280_humidity;BME280_pressure;Samples;Min_cycle;Max_cycle;Signal;HPM_P1;HPM_P2
2023/07/13 00:00:38;;;;;;;;;;;;;;;27.02;49.72;96954.88;4239961;27;5822;-64
2023/07/13 00:02:41;;;;;;;;;;;;;;;27.02;49.62;96955.69;4237601;27;5538;-64
2023/07/13 00:04:43;;;;;;;;;;;;;;;27.03;49.49;96954.59;4236718;28;5830;-64
2023/07/13 00:06:47;;;;;;;;;;;;;;;27.02;49.52;96954.88;4233367;27;5623;-64
2023/07/13 00:08:52;;;;;;;;;;;;;;;26.98;49.63;96952.75;4232758;27;5707;-64
2023/07/13 00:10:55;;;;;;;;;;;;;;;26.99;49.62;96939.97;4237455;28;5083;-64
2023/07/13 00:12:58;;;;;;;;;;;;;;;26.99;49.64;96938.06;4237064;28;5669;-63
2023/07/13 00:15:05;;;;;;;;;;;;;;;26.97;49.73;96934.84;4237188;28;5910;-64
2023/07/13 00:17:07;;;;;;;;;;;;;;;26.99;49.77;96939.97;4237197;28;5509;-64
2023/07/13 00:19:11;;;;;;;;;;;;;;;26.99;49.87;96938.06;4234556;28;5673;-64
2023/07/13 00:21:14;;;;;;;;;;;;;;;26.99;49.69;96940.78;4231190;28;5820;-64
2023/07/13 00:23:18;;;;;;;;;;;;;;;26.99;49.80;96937.28;4235312;27;5609;-65
2023/07/13 00:25:27;;;;;;;;;;;;;;;26.98;49.78;96931.03;4230718;27;6279;-65
2023/07/13 00:27:31;;;;;;;;;;;;;;;27.01;49.76;96936.97;4239992;27;5508;-65
2023/07/13 00:29:34;;;;;;;;;;;;;;;27.01;49.76;96937.78;4240098;27;5617;-65
2023/07/13 00:31:37;;;;;;;;;;;;;;;27.02;49.73;96939.41;4235960;27;5526;-65
2023/07/13 00:33:40;;;;;;;;;;;;;;;27.02;49.75;96933.19;4237401;27;5769;-65
2023/07/13 00:35:44;;;;;;;;;;;;;;;27.01;49.85;96926.13;4236407;28;5711;-64
2023/07/13 00:37:47;;;;;;;;;;;;;;;27.00;50.00;96930.75;4236500;28;5789;-64
2023/07/13 00:39:50;;;;;;;;;;;;;;;27.00;49.82;96930.75;4236567;28;5786;-65
2023/07/13 00:41:55;;;;;;;;;;;;;;;27.01;49.88;96926.13;4236439;28;5609;-65
2023/07/13 00:43:57;;;;;;;;;;;;;;;27.00;49.86;96928.03;4228284;28;6446;-65
2023/07/13 00:46:14;;;;;;;;;;;;;;;26.99;49.87;96923.72;4236465;28;5502;-65
2023/07/13 00:48:21;;;;;;;;;;;;;;;26.99;49.90;96926.41;4236498;28;5596;-65
2023/07/13 00:50:24;;;;;;;;;;;;;;;26.99;49.79;96926.41;4236672;28;5626;-65
2023/07/13 00:52:29;;;;;;;;;;;;;;;26.99;49.92;96934.56;4235736;28;5687;-65
2023/07/13 00:54:36;;;;;;;;;;;;;;;26.98;49.76;96933.75;4236587;28;5593;-65
2023/07/13 00:56:41;;;;;;;;;;;;;;;27.00;49.80;96930.75;4236603;28;5691;-65
2023/07/13 00:58:45;;;;;;;;;;;;;;;26.99;49.78;96929.94;4236635;28;5992;-62
2023/07/13 01:00:50;;;;;;;;;;;;;;;27.00;49.67;96930.75;4235521;28;5703;-62
2023/07/13 01:02:53;;;;;;;;;;;;;;;27.01;49.70;96936.97;4236621;28;7747;-65
2023/07/13 01:04:57;;;;;;;;;;;;;;;27.01;49.70;96928.84;4235860;28;5198;-65
2023/07/13 01:07:00;;;;;;;;;;;;;;;27.02;49.74;96925.84;4236209;28;5598;-65
2023/07/13 01:09:03;;;;;;;;;;;;;;;27.03;49.76;96930.19;4236351;28;5703;-65
2023/07/13 01:11:08;;;;;;;;;;;;;;;27.01;49.66;96929.63;4235895;28;5501;-65
2023/07/13 01:13:11;;;;;;;;;;;;;;;26.97;50.04;96925.91;4236144;28;5609;-65
2023/07/13 01:15:42;;;;;;;;;;;;;;;26.97;49.85;96926.72;4236362;28;5655;-65
2023/07/13 01:17:45;;;;;;;;;;;;;;;26.98;49.81;96930.25;4236522;28;5671;-65
2023/07/13 01:19:47;;;;;;;;;;;;;;;26.96;49.95;96933.25;4236221;28;5581;-63
2023/07/13 01:21:53;;;;;;;;;;;;;;;26.94;49.86;96929.19;4236011;28;6589;-63
2023/07/13 01:23:57;;;;;;;;;;;;;;;26.92;49.75;96936.81;4227783;28;5589;-63
2023/07/13 01:26:00;;;;;;;;;;;;;;;26.85;49.80;96934.50;4235996;28;5613;-63
2023/07/13 01:28:04;;;;;;;;;;;;;;;26.80;49.59;96923.72;4235873;28;5764;-63
2023/07/13 01:30:08;;;;;;;;;;;;;;;26.79;49.63;96919.38;4235922;28;5605;-63
2023/07/13 01:32:12;;;;;;;;;;;;;;;26.76;49.39;96925.41;4235823;28;5774;-63
2023/07/13 01:34:15;;;;;;;;;;;;;;;26.74;49.33;96922.19;4235286;27;5142;-62
2023/07/13 01:36:17;;;;;;;;;;;;;;;26.74;49.38;96926.81;4239506;27;5778;-63
2023/07/13 01:38:23;;;;;;;;;;;;;;;26.69;49.27;96919.53;4235606;28;5757;-63
2023/07/13 01:40:25;;;;;;;;;;;;;;;26.68;49.28;96916.03;4235716;28;5494;-63
2023/07/13 01:42:29;;;;;;;;;;;;;;;26.69;49.21;96923.06;4234615;27;5766;-63
2023/07/13 01:44:32;;;;;;;;;;;;;;;26.70;49.09;96916.53;4236647;27;5508;-63
2023/07/13 01:46:34;;;;;;;;;;;;;;;26.73;49.14;96917.88;4233370;27;5678;-63
2023/07/13 01:48:37;;;;;;;;;;;;;;;26.75;49.14;96925.72;4233780;28;5625;-63
2023/07/13 01:50:40;;;;;;;;;;;;;;;26.75;48.92;96918.38;4235337;28;5524;-63
2023/07/13 01:52:43;;;;;;;;;;;;;;;26.77;48.88;96923.50;4235140;28;5513;-63
2023/07/13 01:54:48;;;;;;;;;;;;;;;26.78;48.74;96923.22;4234927;28;5699;-63
2023/07/13 01:56:50;;;;;;;;;;;;;;;26.79;48.67;96924.00;4229586;27;5642;-64
2023/07/13 01:58:53;;;;;;;;;;;;;;;26.78;48.71;96915.06;4241496;27;5612;-64
2023/07/13 02:00:56;;;;;;;;;;;;;;;26.72;48.55;96918.13;4235082;28;5593;-64
2023/07/13 02:02:59;;;;;;;;;;;;;;;26.69;48.68;96923.06;4234166;28;6397;-65
2023/07/13 02:05:02;;;;;;;;;;;;;;;26.64;48.78;96915.00;4232008;27;6837;-65
2023/07/13 02:07:06;;;;;;;;;;;;;;;26.55;48.63;96913.25;4226553;27;5676;-65
2023/07/13 02:09:08;;;;;;;;;;;;;;;26.52;48.89;96911.13;4235628;27;5595;-65
2023/07/13 02:11:13;;;;;;;;;;;;;;;26.54;48.79;96917.06;4237148;27;5656;-64
2023/07/13 02:13:16;;;;;;;;;;;;;;;26.59;48.89;96914.25;4235446;28;5691;-64
2023/07/13 02:15:19;;;;;;;;;;;;;;;26.63;48.79;96921.53;4235129;28;5691;-65
2023/07/13 02:17:22;;;;;;;;;;;;;;;26.56;48.76;96917.56;4235078;27;5696;-65
2023/07/13 02:19:25;;;;;;;;;;;;;;;26.49;48.58;96915.19;4230281;27;5513;-65
2023/07/13 02:21:28;;;;;;;;;;;;;;;26.34;48.81;96918.09;4239016;27;5592;-64
2023/07/13 02:23:31;;;;;;;;;;;;;;;26.23;49.01;96920.13;4235106;28;5613;-65
2023/07/13 02:25:34;;;;;;;;;;;;;;;26.24;49.04;96915.50;4245412;27;5603;-65
2023/07/13 02:27:38;;;;;;;;;;;;;;;26.17;48.87;96906.94;4236495;27;5075;-65
2023/07/13 02:29:41;;;;;;;;;;;;;;;26.14;48.89;96913.72;4234073;27;5851;-65
2023/07/13 02:31:44;;;;;;;;;;;;;;;26.13;48.91;96912.94;4218418;27;5718;-64
2023/07/13 02:33:47;;;;;;;;;;;;;;;26.06;49.16;96900.84;4223488;27;5640;-64
2023/07/13 02:35:51;;;;;;;;;;;;;;;26.01;49.39;96904.41;4224340;27;5699;-64
2023/07/13 02:37:53;;;;;;;;;;;;;;;25.98;49.40;96899.56;4218136;28;5698;-64
2023/07/13 02:39:56;;;;;;;;;;;;;;;25.94;49.54;96895.84;4224589;27;5577;-65
2023/07/13 02:42:00;;;;;;;;;;;;;;;25.89;49.16;96895.09;4233498;27;5731;-65
2023/07/13 02:44:04;;;;;;;;;;;;;;;25.85;49.37;96894.88;4228090;27;5605;-65
2023/07/13 02:46:08;;;;;;;;;;;;;;;25.81;49.67;96893.81;4237677;27;5701;-65
2023/07/13 02:48:11;;;;;;;;;;;;;;;25.85;49.39;96892.16;4234769;28;5601;-65
2023/07/13 02:50:14;;;;;;;;;;;;;;;25.91;49.59;96890.97;4228318;27;5064;-65
2023/07/13 02:52:17;;;;;;;;;;;;;;;25.95;49.40;96889.34;4233836;27;5605;-65
2023/07/13 02:54:19;;;;;;;;;;;;;;;25.91;49.19;96896.41;4234392;27;5597;-65
2023/07/13 02:56:25;;;;;;;;;;;;;;;25.87;49.48;96892.66;4233165;27;5601;-64
2023/07/13 02:58:28;;;;;;;;;;;;;;;25.92;49.49;96895.31;4234007;28;5601;-65
2023/07/13 03:00:32;;;;;;;;;;;;;;;25.99;49.26;96893.06;4229355;27;5582;-65
2023/07/13 03:02:36;;;;;;;;;;;;;;;26.00;49.32;96889.25;4236482;27;5707;-65
2023/07/13 03:04:40;;;;;;;;;;;;;;;26.04;49.33;96895.69;4233448;27;5801;-65
2023/07/13 03:06:43;;;;;;;;;;;;;;;26.07;49.10;96897.84;4233650;27;5857;-65
2023/07/13 03:08:46;;;;;;;;;;;;;;;26.08;49.01;96902.16;4236063;27;5587;-64
2023/07/13 03:10:49;;;;;;;;;;;;;;;26.07;49.04;96905.97;4234537;27;5624;-65
2023/07/13 03:12:52;;;;;;;;;;;;;;;26.07;48.91;96902.47;4234014;28;6310;-65
2023/07/13 03:14:55;;;;;;;;;;;;;;;26.11;49.10;96908.91;4230640;27;5608;-65
2023/07/13 03:16:59;;;;;;;;;;;;;;;26.01;48.95;96909.03;4228021;27;5668;-65
2023/07/13 03:19:02;;;;;;;;;;;;;;;25.95;49.18;96918.31;4241678;27;6393;-65
2023/07/13 03:21:06;;;;;;;;;;;;;;;25.83;49.14;96913.31;4232717;27;5596;-60
2023/07/13 03:23:09;;;;;;;;;;;;;;;25.64;49.49;96917.81;4231470;27;5802;-61
2023/07/13 03:25:12;;;;;;;;;;;;;;;25.36;49.52;96917.50;4230521;27;5713;-61
2023/07/13 03:27:16;;;;;;;;;;;;;;;25.10;50.20;96927.75;4233239;27;5227;-63
2023/07/13 03:29:19;;;;;;;;;;;;;;;24.89;50.24;96927.06;4233092;27;5617;-64
2023/07/13 03:31:26;;;;;;;;;;;;;;;24.93;50.50;96930.84;4225546;27;5708;-64
2023/07/13 03:33:30;;;;;;;;;;;;;;;24.85;50.41;96936.03;4230290;27;5605;-64
2023/07/13 03:35:35;;;;;;;;;;;;;;;24.77;50.63;96933.91;4230989;28;5609;-64
2023/07/13 03:37:42;;;;;;;;;;;;;;;24.70;50.94;96944.25;4231741;27;5717;-64
2023/07/13 03:39:45;;;;;;;;;;;;;;;24.55;50.77;96939.72;4225831;28;5861;-64
2023/07/13 03:41:48;;;;;;;;;;;;;;;24.45;51.38;96942.47;4233759;28;6483;-64
2023/07/13 03:43:52;;;;;;;;;;;;;;;24.35;51.60;96954.97;4233813;28;5775;-64
2023/07/13 03:45:54;;;;;;;;;;;;;;;24.34;51.48;96953.31;4234076;28;5683;-64
2023/07/13 03:47:56;;;;;;;;;;;;;;;24.33;51.29;96961.72;4225742;28;5844;-64
2023/07/13 03:50:01;;;;;;;;;;;;;;;24.22;51.46;96955.50;4234085;28;5593;-64
2023/07/13 03:52:05;;;;;;;;;;;;;;;24.16;51.59;96956.63;4232916;28;5715;-64
2023/07/13 03:54:08;;;;;;;;;;;;;;;24.08;51.87;96957.19;4233423;28;5672;-64
2023/07/13 03:56:11;;;;;;;;;;;;;;;23.95;52.45;96960.47;4230835;28;5601;-64
2023/07/13 03:58:34;;;;;;;;;;;;;;;23.79;52.84;96959.72;4227865;28;5889;-60
2023/07/13 04:00:37;;;;;;;;;;;;;;;23.68;53.19;96956.22;4225310;28;5600;-60
2023/07/13 04:02:41;;;;;;;;;;;;;;;23.63;53.46;96958.91;4223601;28;5621;-60
2023/07/13 04:04:44;;;;;;;;;;;;;;;23.65;53.64;96962.16;4233875;28;6329;-60
2023/07/13 04:06:48;;;;;;;;;;;;;;;23.67;53.88;96960.00;4233725;28;5597;-60
2023/07/13 04:08:52;;;;;;;;;;;;;;;23.54;54.22;96955.91;4234114;28;5691;-60
2023/07/13 04:10:55;;;;;;;;;;;;;;;23.46;55.20;96964.59;4232754;28;6409;-60
2023/07/13 04:12:58;;;;;;;;;;;;;;;23.51;55.29;96961.88;4233602;28;5601;-59
2023/07/13 04:15:01;;;;;;;;;;;;;;;23.66;54.76;96969.16;4233821;28;5683;-60
2023/07/13 04:17:05;;;;;;;;;;;;;;;23.83;54.85;96960.78;4233882;28;5828;-60
2023/07/13 04:19:09;;;;;;;;;;;;;;;23.98;54.70;96965.31;4233980;28;5813;-60
2023/07/13 04:21:13;;;;;;;;;;;;;;;24.09;54.72;96956.09;4232652;28;5593;-60
2023/07/13 04:23:18;;;;;;;;;;;;;;;24.16;54.50;96962.03;4233284;28;5848;-60
2023/07/13 04:25:22;;;;;;;;;;;;;;;24.21;54.78;96962.00;4233806;28;5652;-60
2023/07/13 04:27:25;;;;;;;;;;;;;;;24.23;54.35;96969.81;4233713;28;5657;-60
2023/07/13 04:29:28;;;;;;;;;;;;;;;24.29;54.46;96969.53;4233693;28;5687;-60
2023/07/13 04:31:31;;;;;;;;;;;;;;;24.38;54.75;96967.91;4233734;28;5657;-60
2023/07/13 04:33:34;;;;;;;;;;;;;;;24.50;54.20;96973.00;4233426;28;5811;-61
2023/07/13 04:35:37;;;;;;;;;;;;;;;24.58;54.08;96980.53;4234613;28;5501;-60
2023/07/13 04:37:40;;;;;;;;;;;;;;;24.68;53.94;96985.03;4230466;27;5683;-60
2023/07/13 04:39:44;;;;;;;;;;;;;;;24.78;53.78;96981.47;4233948;28;5672;-60
2023/07/13 04:41:47;;;;;;;;;;;;;;;24.86;54.12;96983.59;4235341;28;5581;-60
2023/07/13 04:43:50;;;;;;;;;;;;;;;24.92;53.98;96994.13;4231129;27;7687;-60
2023/07/13 04:45:53;;;;;;;;;;;;;;;24.98;53.46;96990.28;4236509;28;5654;-59
2023/07/13 04:47:57;;;;;;;;;;;;;;;25.03;53.98;96994.06;4219972;28;5843;-60
2023/07/13 04:49:59;;;;;;;;;;;;;;;25.08;53.44;96994.03;4236225;28;7638;-61
2023/07/13 04:52:02;;;;;;;;;;;;;;;25.12;53.63;97001.31;4235174;28;5598;-60
2023/07/13 04:54:07;;;;;;;;;;;;;;;25.16;53.48;97001.56;4236294;28;5818;-59
2023/07/13 04:56:12;;;;;;;;;;;;;;;25.19;53.45;97001.81;4234075;28;7825;-60
2023/07/13 04:58:15;;;;;;;;;;;;;;;25.21;53.74;97006.94;4234457;28;5695;-60
2023/07/13 05:00:18;;;;;;;;;;;;;;;25.20;53.42;97000.72;4231719;28;5700;-60
2023/07/13 05:02:21;;;;;;;;;;;;;;;25.19;53.67;97004.50;4236801;28;5629;-61
2023/07/13 05:04:24;;;;;;;;;;;;;;;25.15;53.64;97010.78;4236411;28;5584;-60
2023/07/13 05:06:27;;;;;;;;;;;;;;;25.15;53.43;97016.19;4233686;28;5609;-60
2023/07/13 05:08:30;;;;;;;;;;;;;;;25.14;53.61;97017.25;4236332;28;5683;-60
2023/07/13 05:10:33;;;;;;;;;;;;;;;25.18;53.42;97018.31;4235872;28;5600;-60
2023/07/13 05:12:37;;;;;;;;;;;;;;;25.24;53.17;97018.00;4229895;28;5600;-60
2023/07/13 05:14:40;;;;;;;;;;;;;;;25.29;53.31;97017.16;4234037;28;5597;-61
2023/07/13 05:16:43;;;;;;;;;;;;;;;25.32;53.38;97022.00;4236422;28;5827;-60
2023/07/13 05:18:46;;;;;;;;;;;;;;;25.33;53.08;97026.31;4236129;28;5529;-60
2023/07/13 05:20:55;;;;;;;;;;;;;;;25.35;53.22;97029.56;4234689;28;5687;-61
2023/07/13 05:22:58;;;;;;;;;;;;;;;25.38;53.19;97026.31;4225461;27;5600;-61
2023/07/13 05:25:00;;;;;;;;;;;;;;;25.42;53.31;97030.06;4219584;28;5850;-61
2023/07/13 05:27:03;;;;;;;;;;;;;;;25.45;53.22;97031.38;4231837;28;7683;-61
2023/07/13 05:29:08;;;;;;;;;;;;;;;25.46;53.25;97022.97;4236044;28;5601;-61
2023/07/13 05:31:11;;;;;;;;;;;;;;;25.49;53.18;97027.03;4236085;28;5524;-61
2023/07/13 05:33:14;;;;;;;;;;;;;;;25.49;53.37;97027.84;4236191;28;5779;-61
2023/07/13 05:35:17;;;;;;;;;;;;;;;25.47;53.34;97032.72;4235494;28;5676;-61
2023/07/13 05:37:20;;;;;;;;;;;;;;;25.46;53.19;97022.16;4236002;28;5604;-61
2023/07/13 05:39:24;;;;;;;;;;;;;;;25.44;53.04;97019.75;4235621;27;5676;-61
2023/07/13 05:41:27;;;;;;;;;;;;;;;25.45;53.01;97021.34;4237276;27;5597;-61
2023/07/13 05:43:30;;;;;;;;;;;;;;;25.48;53.10;97023.53;4235496;27;5605;-61
2023/07/13 05:45:34;;;;;;;;;;;;;;;25.49;52.96;97029.75;4230220;28;7652;-61
2023/07/13 05:47:37;;;;;;;;;;;;;;;25.49;52.93;97033.25;4236489;27;5846;-61
2023/07/13 05:49:40;;;;;;;;;;;;;;;25.50;53.07;97037.56;4238055;27;5616;-61
2023/07/13 05:51:43;;;;;;;;;;;;;;;25.49;53.02;97040.56;4217526;28;5642;-61
2023/07/13 05:53:45;;;;;;;;;;;;;;;25.47;52.97;97043.53;4235492;28;5795;-61
2023/07/13 05:55:49;;;;;;;;;;;;;;;25.39;52.95;97038.75;4235221;28;5605;-61
2023/07/13 05:57:52;;;;;;;;;;;;;;;25.41;52.71;97041.97;4235654;28;5781;-61
2023/07/13 05:59:54;;;;;;;;;;;;;;;25.47;52.97;97051.66;4234869;28;5687;-61
2023/07/13 06:01:58;;;;;;;;;;;;;;;25.54;52.47;97051.34;4234893;28;5795;-61
2023/07/13 06:04:02;;;;;;;;;;;;;;;25.55;52.56;97045.66;4235319;28;5700;-61
2023/07/13 06:06:06;;;;;;;;;;;;;;;25.57;52.81;97052.66;4235283;28;5604;-60
2023/07/13 06:08:09;;;;;;;;;;;;;;;25.58;52.55;97046.97;4235317;28;5728;-61
2023/07/13 06:10:12;;;;;;;;;;;;;;;25.59;52.53;97058.59;4235414;28;5664;-61
2023/07/13 06:12:15;;;;;;;;;;;;;;;25.58;52.90;97060.50;4235388;28;5758;-61
2023/07/13 06:14:18;;;;;;;;;;;;;;;25.59;52.49;97064.81;4235239;28;5677;-61
2023/07/13 06:16:21;;;;;;;;;;;;;;;25.60;52.79;97065.66;4235153;28;5746;-61
2023/07/13 06:18:25;;;;;;;;;;;;;;;25.61;52.88;97072.69;4235143;28;5605;-61
2023/07/13 06:20:28;;;;;;;;;;;;;;;25.62;52.84;97074.31;4235287;28;5617;-61
2023/07/13 06:22:31;;;;;;;;;;;;;;;25.63;53.00;97079.44;4234913;28;5691;-61
2023/07/13 06:24:34;;;;;;;;;;;;;;;25.63;52.73;97081.34;4234860;28;5907;-60
2023/07/13 06:26:37;;;;;;;;;;;;;;;25.63;53.00;97094.88;4235349;28;5497;-60
2023/07/13 06:28:40;;;;;;;;;;;;;;;25.66;52.97;97102.41;4235464;28;5766;-61
2023/07/13 06:30:43;;;;;;;;;;;;;;;25.64;52.58;97110.00;4235021;28;6342;-61
2023/07/13 06:32:46;;;;;;;;;;;;;;;25.63;52.75;97113.81;4234728;28;5589;-61
2023/07/13 06:34:51;;;;;;;;;;;;;;;25.62;53.03;97104.09;4234770;28;5613;-61
2023/07/13 06:36:54;;;;;;;;;;;;;;;25.61;52.70;97099.75;4216568;28;5600;-61
2023/07/13 06:38:57;;;;;;;;;;;;;;;25.61;53.17;97094.34;4227012;28;5687;-61
2023/07/13 06:41:00;;;;;;;;;;;;;;;25.63;52.93;97097.56;4234955;28;5857;-61
2023/07/13 06:43:03;;;;;;;;;;;;;;;25.63;53.29;97101.09;4234772;28;5666;-61
2023/07/13 06:45:07;;;;;;;;;;;;;;;25.64;53.07;97104.59;4233736;27;5720;-61
2023/07/13 06:47:10;;;;;;;;;;;;;;;25.63;53.23;97097.56;4238710;27;5606;-61
2023/07/13 06:49:13;;;;;;;;;;;;;;;25.64;53.35;97099.19;4234365;27;5880;-61
2023/07/13 06:51:17;;;;;;;;;;;;;;;25.65;53.20;97104.31;4232643;27;5695;-60
2023/07/13 06:53:20;;;;;;;;;;;;;;;25.67;53.44;97104.84;4238325;27;5805;-61
2023/07/13 06:55:23;;;;;;;;;;;;;;;25.69;53.32;97105.38;4243955;27;5691;-61
2023/07/13 06:57:26;;;;;;;;;;;;;;;25.70;53.32;97108.91;4234325;28;5691;-61
2023/07/13 06:59:29;;;;;;;;;;;;;;;25.70;53.23;97112.41;4234169;28;5680;-61
2023/07/13 07:01:32;;;;;;;;;;;;;;;25.69;53.41;97110.81;4234563;28;5833;-61
2023/07/13 07:03:35;;;;;;;;;;;;;;;25.71;53.25;97114.06;4234290;28;5598;-61
2023/07/13 07:05:37;;;;;;;;;;;;;;;25.74;53.46;97112.69;4234257;28;5684;-61
2023/07/13 07:07:42;;;;;;;;;;;;;;;25.77;53.27;97117.53;4233984;28;5690;-61
2023/07/13 07:09:44;;;;;;;;;;;;;;;25.80;53.34;97119.66;4234327;28;5628;-61
2023/07/13 07:11:47;;;;;;;;;;;;;;;25.78;53.42;97124.56;4234477;28;5509;-61
2023/07/13 07:14:05;;;;;;;;;;;;;;;25.76;53.32;97124.03;4227097;28;5098;-61
2023/07/13 07:16:06;;;;;;;;;;;;;;;25.73;53.65;97127.31;4234123;28;5871;-61
2023/07/13 07:18:09;;;;;;;;;;;;;;;25.71;53.56;97127.59;4234196;28;5737;-61
2023/07/13 07:20:12;;;;;;;;;;;;;;;25.72;53.60;97129.22;4234207;28;5589;-61
2023/07/13 07:22:15;;;;;;;;;;;;;;;25.71;53.45;97134.88;4234099;28;5609;-61
2023/07/13 07:24:20;;;;;;;;;;;;;;;25.69;53.47;97135.16;4233783;28;5703;-61
2023/07/13 07:26:23;;;;;;;;;;;;;;;25.68;53.62;97132.72;4234262;28;5683;-61
2023/07/13 07:28:30;;;;;;;;;;;;;;;25.68;53.62;97125.41;4234264;28;5589;-61
2023/07/13 07:30:48;;;;;;;;;;;;;;;25.70;53.96;97133.28;4234224;28;5680;-61
2023/07/13 07:32:54;;;;;;;;;;;;;;;25.75;54.03;97127.84;4234165;28;5604;-61
2023/07/13 07:34:59;;;;;;;;;;;;;;;25.83;53.68;97122.63;4233823;28;6461;-62
2023/07/13 07:37:02;;;;;;;;;;;;;;;25.90;53.82;97121.47;4234086;28;5774;-62
2023/07/13 07:39:08;;;;;;;;;;;;;;;25.95;53.61;97121.47;4234405;28;5796;-62
2023/07/13 07:41:14;;;;;;;;;;;;;;;25.97;53.60;97117.38;4231629;28;5601;-62
2023/07/13 07:43:20;;;;;;;;;;;;;;;25.96;54.07;97118.47;4229149;28;6019;-62
2023/07/13 07:45:23;;;;;;;;;;;;;;;25.99;53.96;97126.00;4234125;28;5739;-63
2023/07/13 07:47:26;;;;;;;;;;;;;;;26.01;54.02;97109.47;4234020;28;6998;-62
2023/07/13 07:49:29;;;;;;;;;;;;;;;26.00;53.87;97119.50;4234075;28;5599;-62
2023/07/13 07:51:32;;;;;;;;;;;;;;;26.01;54.19;97125.72;4233618;28;5605;-62
2023/07/13 07:53:35;;;;;;;;;;;;;;;25.99;53.93;97122.50;4233767;28;5739;-62
2023/07/13 07:55:38;;;;;;;;;;;;;;;25.97;54.06;97121.97;4233824;28;5645;-62
2023/07/13 07:57:45;;;;;;;;;;;;;;;26.00;54.02;97124.09;4233580;28;5716;-62
2023/07/13 07:59:51;;;;;;;;;;;;;;;26.03;53.91;97129.75;4233824;28;5676;-62
2023/07/13 08:01:57;;;;;;;;;;;;;;;26.04;54.13;97125.97;4225743;28;5703;-62
2023/07/13 08:04:03;;;;;;;;;;;;;;;26.03;53.56;97135.19;4233652;28;5696;-62
2023/07/13 08:06:08;;;;;;;;;;;;;;;26.02;54.04;97130.84;4233365;27;5782;-62
2023/07/13 08:08:31;;;;;;;;;;;;;;;26.00;54.09;97134.94;4229898;28;5510;-62
2023/07/13 08:10:37;;;;;;;;;;;;;;;25.98;53.89;97132.53;4234902;28;5735;-64
2023/07/13 08:12:41;;;;;;;;;;;;;;;26.00;54.08;97130.34;4232148;28;5720;-62
2023/07/13 08:14:53;;;;;;;;;;;;;;;26.00;54.10;97133.03;4228913;28;5802;-63
2023/07/13 08:16:56;;;;;;;;;;;;;;;26.01;53.74;97144.69;4234744;28;5848;-63
2023/07/13 08:18:58;;;;;;;;;;;;;;;26.00;54.11;97133.03;4236931;28;5605;-62
2023/07/13 08:21:04;;;;;;;;;;;;;;;26.01;53.72;97136.56;4236884;28;5593;-62
2023/07/13 08:23:09;;;;;;;;;;;;;;;26.01;53.83;97140.06;4236482;28;5597;-62
2023/07/13 08:25:13;;;;;;;;;;;;;;;26.00;53.84;97140.38;4236851;28;5688;-62
2023/07/13 08:27:15;;;;;;;;;;;;;;;26.00;53.81;97149.31;4236843;28;5513;-62
2023/07/13 08:29:19;;;;;;;;;;;;;;;26.03;53.58;97150.63;4236935;28;5714;-62
2023/07/13 08:31:23;;;;;;;;;;;;;;;26.06;53.73;97153.59;4236670;28;5812;-62
2023/07/13 08:33:26;;;;;;;;;;;;;;;26.07;53.49;97147.09;4236454;28;5095;-62
2023/07/13 08:35:29;;;;;;;;;;;;;;;26.07;53.43;97146.28;4233982;28;5608;-62
2023/07/13 08:37:32;;;;;;;;;;;;;;;26.09;53.41;97144.91;4236607;28;5585;-62
2023/07/13 08:39:35;;;;;;;;;;;;;;;26.12;53.38;97143.50;4236708;28;5586;-62
2023/07/13 08:41:38;;;;;;;;;;;;;;;26.11;53.51;97141.91;4236738;28;5664;-62
2023/07/13 08:43:44;;;;;;;;;;;;;;;26.10;53.58;97149.22;4236685;28;5621;-62
2023/07/13 08:45:50;;;;;;;;;;;;;;;26.09;53.66;97147.59;4236762;28;5609;-62
2023/07/13 08:48:01;;;;;;;;;;;;;;;26.08;53.39;97148.69;4232251;28;5691;-63
2023/07/13 08:50:05;;;;;;;;;;;;;;;26.03;53.23;97150.63;4236639;28;5804;-62
2023/07/13 08:52:16;;;;;;;;;;;;;;;26.03;53.30;97153.34;4236981;28;5186;-62
2023/07/13 08:54:24;;;;;;;;;;;;;;;26.05;53.28;97151.19;4236577;28;5803;-62
2023/07/13 08:56:30;;;;;;;;;;;;;;;26.08;53.30;97154.13;4236626;28;5721;-61
2023/07/13 08:58:34;;;;;;;;;;;;;;;26.10;53.04;97160.06;4234143;28;5613;-61
2023/07/13 09:00:46;;;;;;;;;;;;;;;26.08;52.90;97159.53;4234906;27;5617;-63
2023/07/13 09:02:57;;;;;;;;;;;;;;;26.06;52.94;97156.31;4241223;27;5716;-62
2023/07/13 09:05:03;;;;;;;;;;;;;;;26.10;52.95;97157.34;4243377;27;5813;-62
2023/07/13 09:07:17;;;;;;;;;;;;;;;26.18;52.93;97155.13;4235510;28;6407;-62
2023/07/13 09:09:34;;;;;;;;;;;;;;;26.23;52.98;97155.06;4235479;28;5766;-62
2023/07/13 09:11:47;;;;;;;;;;;;;;;26.27;52.82;97158.81;4233578;28;5762;-61
2023/07/13 09:14:02;;;;;;;;;;;;;;;26.30;52.54;97150.13;4236045;28;5752;-61
2023/07/13 09:16:05;;;;;;;;;;;;;;;26.32;52.54;97150.66;4228920;28;5679;-61
2023/07/13 09:18:15;;;;;;;;;;;;;;;26.33;52.65;97144.94;4235974;28;5699;-61
2023/07/13 09:20:26;;;;;;;;;;;;;;;26.36;52.26;97149.81;4239111;27;5685;-61
2023/07/13 09:22:32;;;;;;;;;;;;;;;26.38;52.49;97153.03;4238808;27;5601;-61
2023/07/13 09:24:40;;;;;;;;;;;;;;;26.42;52.42;97153.31;4235588;28;5521;-61
2023/07/13 09:26:43;;;;;;;;;;;;;;;26.44;52.33;97167.38;4235893;28;5707;-61
2023/07/13 09:28:47;;;;;;;;;;;;;;;26.44;52.06;97156.53;4236022;28;5729;-61
2023/07/13 09:30:53;;;;;;;;;;;;;;;26.44;52.20;97151.09;4235885;28;5621;-61
2023/07/13 09:32:58;;;;;;;;;;;;;;;26.46;52.00;97158.94;4219175;28;5703;-61
2023/07/13 09:35:09;;;;;;;;;;;;;;;26.45;52.05;97155.44;4235555;28;5778;-62
2023/07/13 09:37:12;;;;;;;;;;;;;;;26.45;51.94;97147.31;4235283;28;6238;-61
2023/07/13 09:39:29;;;;;;;;;;;;;;;26.43;51.97;97160.34;4235572;28;5618;-61
2023/07/13 09:41:41;;;;;;;;;;;;;;;26.42;51.95;97158.72;4224097;28;5617;-61
2023/07/13 09:44:03;;;;;;;;;;;;;;;26.40;51.88;97160.91;4235852;28;5699;-61
2023/07/13 09:46:22;;;;;;;;;;;;;;;26.37;51.84;97159.56;4228710;28;5585;-61
2023/07/13 09:48:25;;;;;;;;;;;;;;;26.35;51.91;97163.63;4235729;28;5596;-62
2023/07/13 09:50:29;;;;;;;;;;;;;;;26.30;51.76;97169.91;4235578;28;5113;-61
2023/07/13 09:52:43;;;;;;;;;;;;;;;26.30;51.79;97174.53;4235551;28;5676;-61
2023/07/13 09:54:49;;;;;;;;;;;;;;;26.33;51.65;97173.94;4234556;28;5704;-61
2023/07/13 09:56:57;;;;;;;;;;;;;;;26.33;51.77;97165.81;4235182;28;5585;-61
2023/07/13 09:59:00;;;;;;;;;;;;;;;26.30;51.61;97172.63;4235480;28;5860;-61
2023/07/13 10:01:05;;;;;;;;;;;;;;;26.27;51.48;97180.50;4235051;28;5692;-61
2023/07/13 10:03:20;;;;;;;;;;;;;;;26.29;51.61;97179.16;4235198;28;6302;-62
2023/07/13 10:05:24;;;;;;;;;;;;;;;26.31;51.55;97174.25;4235097;28;5707;-62
2023/07/13 10:07:29;;;;;;;;;;;;;;;26.30;51.62;97190.78;4235139;28;5609;-62
2023/07/13 10:09:32;;;;;;;;;;;;;;;26.27;51.37;97183.22;4235325;28;5690;-62
2023/07/13 10:11:37;;;;;;;;;;;;;;;26.29;51.22;97178.34;4235426;28;5601;-61
2023/07/13 10:13:43;;;;;;;;;;;;;;;26.29;51.35;97181.03;4235015;28;5720;-62
2023/07/13 10:15:45;;;;;;;;;;;;;;;26.30;51.41;97182.66;4235239;28;5489;-62
2023/07/13 10:17:50;;;;;;;;;;;;;;;26.30;51.43;97183.47;4234884;28;5597;-62
2023/07/13 10:19:52;;;;;;;;;;;;;;;26.31;51.25;97178.84;4226589;28;5734;-62
2023/07/13 10:21:59;;;;;;;;;;;;;;;26.30;51.29;97182.66;4234810;28;5739;-61
2023/07/13 10:24:13;;;;;;;;;;;;;;;26.30;51.07;97177.25;4234758;28;5608;-62
2023/07/13 10:26:20;;;;;;;;;;;;;;;26.30;51.33;97177.25;4235182;28;5605;-62
2023/07/13 10:28:29;;;;;;;;;;;;;;;26.32;51.23;97180.47;4235232;28;5111;-63
2023/07/13 10:30:36;;;;;;;;;;;;;;;26.34;51.26;97183.69;4234893;28;5509;-62
2023/07/13 10:32:39;;;;;;;;;;;;;;;26.36;51.22;97178.78;4231303;27;5589;-63
2023/07/13 10:34:45;;;;;;;;;;;;;;;26.37;50.91;97183.97;4234165;28;5820;-62
2023/07/13 10:36:49;;;;;;;;;;;;;;;26.39;50.97;97183.69;4233143;28;5748;-62
2023/07/13 10:38:53;;;;;;;;;;;;;;;26.40;50.75;97190.72;4234099;28;5717;-62
2023/07/13 10:41:03;;;;;;;;;;;;;;;26.44;50.87;97183.63;4236857;27;5585;-62
2023/07/13 10:43:14;;;;;;;;;;;;;;;26.46;50.78;97186.88;4234719;28;5723;-62
2023/07/13 10:45:20;;;;;;;;;;;;;;;26.48;50.72;97184.69;4221066;28;5719;-62
2023/07/13 10:47:25;;;;;;;;;;;;;;;26.51;50.57;97191.44;4234484;28;5893;-62
2023/07/13 10:49:29;;;;;;;;;;;;;;;26.51;50.80;97189.53;4230986;28;5137;-62
2023/07/13 10:51:33;;;;;;;;;;;;;;;26.49;50.34;97190.91;4216341;28;5742;-61
2023/07/13 10:53:39;;;;;;;;;;;;;;;26.48;50.54;97192.00;4234369;28;5695;-62
2023/07/13 10:55:57;;;;;;;;;;;;;;;26.49;50.34;97190.91;4235924;27;5798;-62
2023/07/13 10:58:04;;;;;;;;;;;;;;;26.51;50.37;97191.44;4239304;27;5668;-62